This is the latest recevied weather packets stored in our database for station/object DJ2RF. If no packets are shown the sender has not sent any weather packets the latest 10 day(s).
| Time | Temp. | Humidity | Pressure | Rain* | Wind** | Luminosity | Snow |
|---|---|---|---|---|---|---|---|
| 1777764101 | 11.11° C | 64% | 1018.4 hPa | 0 mm | - | - | - |
| 1777761267 | 12.22° C | 59% | 1018.6 hPa | 0 mm | - | - | - |
| 1777760761 | 12.78° C | 60% | 1018.6 hPa | 0 mm | - | - | - |
| 1777760163 | 12.78° C | 59% | 1018.7 hPa | 0 mm | - | - | - |
| 1777759039 | 12.78° C | 58% | 1018.7 hPa | 0 mm | - | - | - |
| 1777758461 | 13.33° C | 58% | 1018.8 hPa | 0 mm | - | - | - |
| 1777757941 | 13.33° C | 58% | 1018.6 hPa | 0 mm | - | - | - |
| 1777757412 | 13.33° C | 59% | 1018.7 hPa | 0 mm | - | - | - |
| 1777756821 | 13.33° C | 58% | 1018.6 hPa | 0 mm | - | - | - |
| 1777756228 | 13.33° C | 57% | 1018.6 hPa | 0 mm | - | - | - |
| 1777755645 | 13.89° C | 56% | 1018.7 hPa | 0 mm | - | - | - |
| 1777755058 | 13.89° C | 55% | 1018.7 hPa | 0 mm | - | - | - |
| 1777753481 | 15° C | 52% | 1018.9 hPa | 0 mm | - | - | - |
| 1777751911 | 15.56° C | 50% | 1019 hPa | 0 mm | - | - | - |
| 1777751353 | 16.11° C | 50% | 1018.9 hPa | 0 mm | - | - | - |
| 1777748683 | 17.22° C | 50% | 1018.8 hPa | 0 mm | - | - | - |
| 1777748140 | 17.78° C | 50% | 1018.8 hPa | 0 mm | - | - | - |
| 1777746506 | 19.44° C | 45% | 1018.6 hPa | 0 mm | - | - | - |
| 1777746007 | 20° C | 42% | 1018.6 hPa | 0 mm | - | - | - |
| 1777745445 | 20° C | 42% | 1018.5 hPa | 0 mm | - | - | - |
| 1777741592 | 23.33° C | 37% | 1018.8 hPa | 0 mm | - | - | - |
| 1777740546 | 23.89° C | 35% | 1018.9 hPa | 0 mm | - | - | - |
| 1777739430 | 24.44° C | 34% | 1019 hPa | 0 mm | - | - | - |
| 1777737871 | 25.56° C | 34% | 1019.3 hPa | 0 mm | - | - | - |
| 1777736273 | 26.11° C | 33% | 1019.6 hPa | 0 mm | - | - | - |
* Rain latest hour (hover to see other rain measurements)
** Current wind speed in m/s (hover to see current wind gust speed)